.
WxDataArchive / Data Records for 2013-02-08
2013-02-07 February 2013 2013-02-09

Data Records for Friday, 08 February 2013

Time	Temp	Chill	HIndex	Humid	Dewpt	 Wind 	HiWind	WindDir	Rain 	Barom 
-----	----	-----	------	-----	-----	------	------	-------	-----	----- 
00:00	33.1	33.1	33.1	91	30.8	1	3	90	0.00	29.786 
00:05	33.1	33.1	33.1	92	31.0	0	2	90	0.01	29.786 
00:10	33.1	33.1	33.1	92	31.0	0	0	---	0.00	29.786 
00:15	33.1	33.1	33.1	92	31.0	0	0	---	0.00	29.787 
00:20	33.1	33.1	33.1	92	31.0	0	1	90	0.00	29.787 
00:25	33.1	33.1	33.1	92	31.0	0	1	90	0.00	29.787 
00:30	33.1	33.1	33.1	92	31.0	0	1	90	0.00	29.784 
00:35	33.1	33.1	33.1	92	31.0	1	3	90	0.00	29.784 
00:40	33.1	33.1	33.1	92	31.0	0	2	90	0.01	29.784 
00:45	33.1	33.1	33.1	92	31.0	0	0	---	0.00	29.790 
00:50	33.1	33.1	33.1	92	31.0	0	0	---	0.00	29.790 
00:55	32.9	32.9	32.9	92	30.8	0	0	---	0.00	29.790 
01:00	32.9	32.9	32.9	92	30.8	0	0	---	0.00	29.787 
01:05	32.9	32.9	32.9	92	30.8	0	0	---	0.00	29.787 
01:10	32.9	32.9	32.9	92	30.8	0	0	---	0.00	29.787 
01:15	32.9	32.9	32.9	92	30.8	0	0	---	0.00	29.787 
01:20	32.9	32.9	32.9	92	30.8	0	0	---	0.00	29.787 
01:25	32.9	32.9	32.9	92	30.8	0	0	---	0.00	29.787 
01:30	32.9	32.9	32.9	93	31.1	0	0	---	0.00	29.783 
01:35	32.9	32.9	32.9	93	31.1	0	0	---	0.00	29.783 
01:40	32.9	32.9	32.9	93	31.1	0	0	---	0.00	29.783 
01:45	32.9	32.9	32.9	93	31.1	0	0	---	0.00	29.782 
01:50	32.9	32.9	32.9	93	31.1	0	0	---	0.00	29.782 
01:55	32.9	32.9	32.9	93	31.1	0	0	---	0.00	29.782 
02:00	33.1	33.1	33.1	93	31.3	0	0	---	0.00	29.782 
02:05	33.1	33.1	33.1	93	31.3	0	0	---	0.00	29.782 
02:10	33.1	33.1	33.1	93	31.3	0	0	---	0.00	29.782 
02:15	33.1	33.1	33.1	93	31.3	0	0	---	0.00	29.791 
02:20	33.1	33.1	33.1	93	31.3	0	0	---	0.00	29.791 
02:25	33.1	33.1	33.1	93	31.3	0	0	---	0.00	29.791 
02:30	33.1	33.1	33.1	93	31.3	0	0	---	0.00	29.792 
02:35	33.1	33.1	33.1	93	31.3	0	1	90	0.00	29.792 
02:40	33.1	33.1	33.1	93	31.3	0	1	90	0.00	29.792 
02:45	33.2	33.2	33.2	93	31.4	0	1	90	0.00	29.799 
02:50	33.2	33.2	33.2	93	31.4	0	1	90	0.01	29.799 
02:55	33.2	33.2	33.2	93	31.4	0	1	90	0.00	29.799 
03:00	33.4	33.4	33.4	94	31.9	0	2	90	0.00	29.811 
03:05	33.4	33.4	33.4	94	31.9	0	2	90	0.00	29.811 
03:10	33.4	33.4	33.4	94	31.9	1	2	90	0.00	29.811 
03:15	33.4	33.4	33.4	94	31.9	1	2	90	0.00	29.810 
03:20	33.5	33.5	33.5	94	32.0	1	3	112	0.00	29.810 
03:25	33.5	33.5	33.5	94	32.0	1	3	248	0.00	29.810 
03:30	33.7	33.7	33.7	94	32.2	2	3	270	0.00	29.811 
03:35	33.7	33.7	33.7	94	32.2	3	6	270	0.00	29.811 
03:40	33.5	33.5	33.5	94	32.0	3	6	270	0.00	29.811 
03:45	33.4	33.4	33.4	94	31.9	3	6	292	0.00	29.814 
03:50	33.4	33.4	33.4	94	31.9	3	6	270	0.00	29.814 
03:55	33.2	33.2	33.2	94	31.7	2	6	292	0.00	29.814 
04:00	33.1	33.1	33.1	94	31.6	2	5	248	0.00	29.816 
04:05	33.1	33.1	33.1	94	31.6	2	4	248	0.00	29.816 
04:10	32.9	32.9	32.9	94	31.4	2	5	248	0.00	29.816 
04:15	32.9	32.9	32.9	94	31.4	2	6	270	0.00	29.820 
04:20	32.9	32.9	32.9	94	31.4	1	5	270	0.00	29.820 
04:25	32.9	32.9	32.9	94	31.4	2	4	270	0.00	29.820 
04:30	32.9	32.9	32.9	94	31.4	2	4	270	0.00	29.827 
04:35	32.9	32.9	32.9	94	31.4	2	5	248	0.00	29.827 
04:40	32.9	32.9	32.9	94	31.4	3	5	270	0.00	29.827 
04:45	32.9	32.9	32.9	94	31.4	2	4	270	0.00	29.835 
04:50	32.9	32.9	32.9	94	31.4	2	4	315	0.00	29.835 
04:55	32.9	32.9	32.9	94	31.4	2	4	338	0.00	29.835 
05:00	33.1	33.1	33.1	94	31.6	2	4	315	0.00	29.844 
05:05	33.1	33.1	33.1	94	31.6	1	5	338	0.00	29.844 
05:10	33.1	33.1	33.1	94	31.6	2	5	248	0.00	29.844 
05:15	33.1	33.1	33.1	94	31.6	2	5	270	0.00	29.848 
05:20	33.1	33.1	33.1	94	31.6	3	5	270	0.00	29.848 
05:25	33.1	33.1	33.1	94	31.6	2	6	292	0.00	29.848 
05:30	33.1	33.1	33.1	94	31.6	2	11	315	0.00	29.860 
05:35	32.9	32.9	32.9	94	31.4	2	5	315	0.00	29.860 
05:40	32.9	32.9	32.9	94	31.4	2	5	338	0.00	29.860 
05:45	32.9	32.9	32.9	94	31.4	2	6	270	0.00	29.874 
05:50	32.8	32.8	32.8	94	31.3	2	6	315	0.00	29.874 
05:55	32.9	32.9	32.9	94	31.4	2	5	292	0.00	29.874 
06:00	32.9	32.9	32.9	94	31.4	2	5	315	0.00	29.880 
06:05	32.9	32.9	32.9	94	31.4	2	4	270	0.00	29.880 
06:10	32.9	32.9	32.9	94	31.4	2	6	338	0.00	29.880 
06:15	32.9	32.9	32.9	94	31.4	2	5	270	0.00	29.894 
06:20	32.8	32.8	32.8	94	31.3	2	7	338	0.00	29.894 
06:25	32.7	32.7	32.7	93	30.9	2	10	292	0.00	29.894 
06:30	32.7	32.7	32.7	93	30.9	3	11	338	0.00	29.896 
06:35	32.5	32.5	32.5	93	30.7	3	10	315	0.00	29.896 
06:40	32.5	32.5	32.5	92	30.4	3	7	338	0.00	29.896 
06:45	32.4	32.4	32.4	92	30.3	3	9	315	0.00	29.912 
06:50	32.2	28.3	32.2	91	29.9	4	11	315	0.00	29.912 
06:55	32.1	32.1	32.1	90	29.5	3	10	315	0.00	29.912 
07:00	31.9	31.9	31.9	89	29.0	3	6	315	0.00	29.925 
07:05	31.9	27.0	31.9	88	28.8	5	10	338	0.00	29.925 
07:10	31.9	28.0	31.9	87	28.5	4	11	315	0.00	29.925 
07:15	31.8	31.8	31.8	86	28.1	3	9	270	0.00	29.935 
07:20	31.8	26.8	31.8	85	27.8	5	11	315	0.00	29.935 
07:25	31.6	27.6	31.6	84	27.3	4	10	315	0.00	29.935 
07:30	31.5	31.5	31.5	84	27.2	2	6	315	0.00	29.950 
07:35	31.3	27.3	31.3	83	26.7	4	9	315	0.00	29.950 
07:40	31.2	27.2	31.2	82	26.4	4	11	292	0.00	29.950 
07:45	31.2	31.2	31.2	82	26.4	3	9	315	0.00	29.962 
07:50	31.0	26.9	31.0	81	25.9	4	12	315	0.00	29.962 
07:55	30.9	26.8	30.9	81	25.8	4	9	315	0.00	29.962 
08:00	30.7	30.7	30.7	80	25.3	3	9	338	0.00	29.974 
08:05	30.7	26.6	30.7	80	25.3	4	12	292	0.00	29.974 
08:10	30.6	30.6	30.6	79	24.9	3	11	292	0.00	29.974 
08:15	30.4	30.4	30.4	80	25.0	2	7	292	0.00	29.989 
08:20	30.3	30.3	30.3	79	24.6	3	11	315	0.00	29.989 
08:25	30.1	30.1	30.1	79	24.4	3	8	292	0.00	29.989 
08:30	30.1	30.1	30.1	78	24.1	3	10	248	0.00	30.004 
08:35	30.0	30.0	30.0	78	24.0	3	11	315	0.00	30.004 
08:40	30.0	30.0	30.0	78	24.0	3	10	315	0.00	30.004 
08:45	30.0	25.8	30.0	78	24.0	4	9	270	0.00	30.011 
08:50	30.0	30.0	30.0	78	24.0	3	12	338	0.00	30.011 
08:55	30.0	30.0	30.0	79	24.3	3	9	338	0.00	30.011 
09:00	30.1	30.1	30.1	79	24.4	2	6	338	0.00	30.026 
09:05	30.1	30.1	30.1	79	24.4	2	7	338	0.00	30.026 
09:10	30.1	30.1	30.1	79	24.4	2	7	338	0.00	30.026 
09:15	30.1	30.1	30.1	79	24.4	3	12	338	0.00	30.035 
09:20	30.1	25.9	30.1	79	24.4	4	7	338	0.00	30.035 
09:25	30.1	30.1	30.1	79	24.4	3	14	338	0.00	30.035 
09:30	30.3	30.3	30.3	79	24.6	3	9	270	0.00	30.042 
09:35	30.3	30.3	30.3	79	24.6	2	5	270	0.00	30.042 
09:40	30.3	30.3	30.3	79	24.6	3	6	315	0.00	30.042 
09:45	30.3	26.1	30.3	78	24.3	4	11	338	0.00	30.052 
09:50	30.4	30.4	30.4	79	24.7	3	9	270	0.00	30.052 
09:55	30.4	30.4	30.4	78	24.4	3	9	338	0.00	30.052 
10:00	30.4	30.4	30.4	78	24.4	3	14	315	0.00	30.056 
10:05	30.4	30.4	30.4	78	24.4	3	7	338	0.00	30.056 
10:10	30.6	30.6	30.6	78	24.6	2	6	338	0.00	30.056 
10:15	30.6	30.6	30.6	78	24.6	3	7	338	0.00	30.067 
10:20	30.6	30.6	30.6	78	24.6	3	9	338	0.00	30.067 
10:25	30.6	30.6	30.6	78	24.6	3	10	338	0.00	30.067 
10:30	30.7	30.7	30.7	77	24.4	3	6	315	0.00	30.079 
10:35	30.7	30.7	30.7	77	24.4	2	5	0	0.00	30.079 
10:40	30.7	30.7	30.7	77	24.4	3	8	315	0.00	30.079 
10:45	30.7	30.7	30.7	76	24.0	3	6	338	0.00	30.093 
10:50	30.7	30.7	30.7	76	24.0	2	14	338	0.00	30.093 
10:55	30.7	30.7	30.7	76	24.0	2	4	315	0.00	30.093 
11:00	30.7	30.7	30.7	76	24.0	2	5	338	0.00	30.108 
11:05	30.7	30.7	30.7	76	24.0	3	10	338	0.00	30.108 
11:10	30.7	30.7	30.7	76	24.0	3	7	338	0.00	30.108 
11:15	30.7	30.7	30.7	76	24.0	3	10	338	0.00	30.121 
11:20	30.7	30.7	30.7	76	24.0	2	7	292	0.00	30.121 
11:25	30.9	30.9	30.9	75	23.9	2	6	0	0.00	30.121 
11:30	31.0	31.0	31.0	75	24.0	2	4	0	0.00	30.123 
11:35	31.2	31.2	31.2	75	24.2	1	4	338	0.00	30.123 
11:40	31.3	31.3	31.3	75	24.3	2	5	338	0.00	30.123 
11:45	31.2	31.2	31.2	75	24.2	3	7	270	0.00	30.126 
11:50	31.2	31.2	31.2	75	24.2	2	4	338	0.00	30.126 
11:55	31.3	31.3	31.3	74	24.0	2	5	338	0.00	30.126 
12:00	31.5	31.5	31.5	73	23.9	2	7	338	0.00	30.131 
12:05	31.6	31.6	31.6	73	24.0	2	6	0	0.00	30.131 
12:10	31.6	31.6	31.6	72	23.6	3	10	270	0.00	30.131 
12:15	31.6	31.6	31.6	73	24.0	2	6	338	0.00	30.134 
12:20	31.8	31.8	31.8	73	24.1	2	5	338	0.00	30.134 
12:25	31.6	31.6	31.6	72	23.6	2	5	338	0.00	30.134 
12:30	31.8	31.8	31.8	72	23.8	2	7	315	0.00	30.140 
12:35	31.8	31.8	31.8	71	23.5	3	7	338	0.00	30.140 
12:40	32.1	32.1	32.1	71	23.8	2	5	338	0.00	30.140 
12:45	32.1	32.1	32.1	70	23.4	3	7	338	0.00	30.149 
12:50	31.9	31.9	31.9	70	23.2	3	7	0	0.00	30.149 
12:55	31.8	31.8	31.8	71	23.5	2	5	292	0.00	30.149 
13:00	31.8	31.8	31.8	72	23.8	1	5	338	0.00	30.155 
13:05	31.8	31.8	31.8	70	23.2	3	10	338	0.00	30.155 
13:10	31.8	31.8	31.8	68	22.5	3	7	338	0.00	30.155 
13:15	32.2	28.3	32.2	66	22.1	4	7	315	0.00	30.153 
13:20	32.2	32.2	32.2	64	21.4	3	6	338	0.00	30.153 
13:25	32.1	32.1	32.1	65	21.7	2	6	338	0.00	30.153 
13:30	32.4	32.4	32.4	65	22.0	2	4	338	0.00	30.150 
13:35	32.7	32.7	32.7	66	22.6	2	4	315	0.00	30.150 
13:40	32.7	32.7	32.7	66	22.6	2	5	292	0.00	30.150 
13:45	32.7	32.7	32.7	68	23.3	2	5	315	0.00	30.147 
13:50	32.8	32.8	32.8	69	23.8	3	7	248	0.00	30.147 
13:55	32.5	32.5	32.5	70	23.8	2	6	315	0.00	30.147 
14:00	32.4	32.4	32.4	71	24.1	1	5	0	0.00	30.161 
14:05	32.5	32.5	32.5	71	24.2	1	3	292	0.00	30.161 
14:10	32.5	32.5	32.5	70	23.8	2	6	338	0.01	30.161 
14:15	32.5	32.5	32.5	70	23.8	2	5	338	0.00	30.164 
14:20	32.5	32.5	32.5	71	24.2	2	6	338	0.00	30.164 
14:25	32.2	32.2	32.2	72	24.2	2	7	315	0.00	30.164 
14:30	32.1	32.1	32.1	71	23.8	3	7	338	0.00	30.173 
14:35	31.9	31.9	31.9	70	23.2	3	5	292	0.00	30.173 
14:40	31.9	31.9	31.9	69	22.9	2	5	270	0.00	30.173 
14:45	32.4	32.4	32.4	66	22.3	3	5	338	0.00	30.181 
14:50	32.4	32.4	32.4	65	22.0	2	6	0	0.00	30.181 
14:55	32.5	32.5	32.5	65	22.1	2	5	338	0.00	30.181 
15:00	32.7	32.7	32.7	65	22.3	2	6	270	0.00	30.181 
15:05	32.5	32.5	32.5	67	22.8	3	10	338	0.00	30.181 
15:10	32.2	32.2	32.2	69	23.2	2	6	292	0.00	30.181 
15:15	31.9	31.9	31.9	69	22.9	2	6	292	0.00	30.184 
15:20	32.1	32.1	32.1	69	23.1	2	5	270	0.00	30.184 
15:25	32.2	32.2	32.2	67	22.5	2	6	292	0.00	30.184 
15:30	32.4	32.4	32.4	65	22.0	2	6	22	0.00	30.192 
15:35	32.4	32.4	32.4	66	22.3	2	5	338	0.00	30.192 
15:40	32.5	32.5	32.5	66	22.4	2	9	292	0.00	30.192 
15:45	32.7	32.7	32.7	65	22.3	1	6	292	0.00	30.196 
15:50	32.7	32.7	32.7	64	21.9	2	5	315	0.00	30.196 
15:55	32.7	32.7	32.7	63	21.5	2	5	338	0.00	30.196 
16:00	32.8	32.8	32.8	65	22.3	2	4	315	0.00	30.199 
16:05	32.7	32.7	32.7	64	21.9	2	4	292	0.00	30.199 
16:10	32.5	32.5	32.5	63	21.3	2	5	338	0.00	30.199 
16:15	32.5	32.5	32.5	63	21.3	2	10	292	0.00	30.210 
16:20	32.4	32.4	32.4	63	21.2	2	4	338	0.00	30.210 
16:25	32.4	32.4	32.4	64	21.6	1	5	0	0.00	30.210 
16:30	32.5	32.5	32.5	63	21.3	1	6	0	0.00	30.214 
16:35	32.5	32.5	32.5	63	21.3	1	5	0	0.00	30.214 
16:40	32.4	32.4	32.4	64	21.6	2	5	315	0.00	30.214 
16:45	32.2	32.2	32.2	67	22.5	2	6	270	0.00	30.228 
16:50	32.1	32.1	32.1	67	22.4	2	6	292	0.00	30.228 
16:55	31.9	31.9	31.9	66	21.9	2	9	0	0.00	30.228 
17:00	31.6	31.6	31.6	65	21.2	2	5	338	0.00	30.230 
17:05	31.5	31.5	31.5	64	20.7	1	4	338	0.00	30.230 
17:10	31.5	31.5	31.5	64	20.7	1	5	292	0.00	30.230 
17:15	31.5	31.5	31.5	64	20.7	2	6	338	0.00	30.239 
17:20	31.3	31.3	31.3	64	20.6	2	5	270	0.00	30.239 
17:25	31.3	31.3	31.3	64	20.6	2	6	270	0.00	30.239 
17:30	31.3	31.3	31.3	65	20.9	1	5	315	0.00	30.246 
17:35	31.3	31.3	31.3	65	20.9	1	4	292	0.00	30.246 
17:40	31.3	31.3	31.3	65	20.9	2	7	0	0.00	30.246 
17:45	31.2	31.2	31.2	65	20.8	1	5	292	0.00	30.258 
17:50	31.0	31.0	31.0	65	20.6	1	4	315	0.00	30.258 
17:55	30.9	30.9	30.9	65	20.5	1	4	315	0.00	30.258 
18:00	30.7	30.7	30.7	65	20.3	1	5	270	0.00	30.266 
18:05	30.7	30.7	30.7	65	20.3	1	4	248	0.00	30.266 
18:10	30.6	30.6	30.6	65	20.3	1	5	270	0.00	30.266 
18:15	30.4	30.4	30.4	67	20.8	0	3	270	0.00	30.276 
18:20	30.1	30.1	30.1	68	20.8	1	4	270	0.00	30.276 
18:25	30.0	30.0	30.0	69	21.1	0	3	315	0.00	30.276 
18:30	29.7	29.7	29.7	69	20.8	0	2	315	0.00	30.280 
18:35	29.5	29.5	29.5	70	20.9	0	3	315	0.00	30.280 
18:40	29.4	29.4	29.4	70	20.8	0	3	338	0.00	30.280 
18:45	29.3	29.3	29.3	70	20.8	0	1	338	0.00	30.288 
18:50	29.1	29.1	29.1	71	20.9	0	2	338	0.00	30.288 
18:55	29.0	29.0	29.0	71	20.8	0	3	338	0.00	30.288 
19:00	29.0	29.0	29.0	71	20.8	0	1	338	0.00	30.295 
19:05	29.0	29.0	29.0	71	20.8	1	4	270	0.00	30.295 
19:10	29.1	29.1	29.1	71	20.9	0	2	270	0.00	30.295 
19:15	29.1	29.1	29.1	71	20.9	0	2	270	0.00	30.302 
19:20	29.0	29.0	29.0	71	20.8	0	2	270	0.00	30.302 
19:25	29.0	29.0	29.0	71	20.8	0	1	270	0.00	30.302 
19:30	28.7	28.7	28.7	71	20.5	0	1	270	0.00	30.312 
19:35	28.5	28.5	28.5	72	20.6	0	1	270	0.00	30.312 
19:40	28.4	28.4	28.4	72	20.5	0	1	270	0.00	30.312 
19:45	28.2	28.2	28.2	72	20.4	0	1	270	0.00	30.327 
19:50	28.1	28.1	28.1	73	20.6	0	1	270	0.00	30.327 
19:55	27.9	27.9	27.9	73	20.4	0	1	270	0.00	30.327 
20:00	27.8	27.8	27.8	73	20.3	0	1	270	0.00	30.329 
20:05	27.6	27.6	27.6	73	20.1	0	0	---	0.00	30.329 
20:10	27.5	27.5	27.5	73	20.0	0	1	270	0.00	30.329 
20:15	27.3	27.3	27.3	73	19.8	0	2	270	0.00	30.334 
20:20	27.2	27.2	27.2	73	19.7	0	1	270	0.00	30.334 
20:25	27.0	27.0	27.0	73	19.5	0	0	---	0.00	30.334 
20:30	26.9	26.9	26.9	73	19.4	0	0	---	0.00	30.334 
20:35	26.6	26.6	26.6	74	19.5	0	1	270	0.00	30.334 
20:40	26.4	26.4	26.4	74	19.3	0	0	---	0.00	30.334 
20:45	26.3	26.3	26.3	74	19.2	0	0	---	0.00	30.337 
20:50	26.1	26.1	26.1	75	19.3	0	0	---	0.00	30.337 
20:55	26.1	26.1	26.1	75	19.3	0	0	---	0.00	30.337 
21:00	26.0	26.0	26.0	75	19.2	0	0	---	0.00	30.344 
21:05	26.0	26.0	26.0	76	19.5	0	0	---	0.00	30.344 
21:10	25.8	25.8	25.8	76	19.3	0	0	---	0.00	30.344 
21:15	25.7	25.7	25.7	76	19.2	0	0	---	0.00	30.345 
21:20	25.4	25.4	25.4	76	18.9	0	0	---	0.00	30.345 
21:25	25.6	25.6	25.6	77	19.4	0	0	---	0.00	30.345 
21:30	25.7	25.7	25.7	77	19.5	0	0	---	0.00	30.352 
21:35	25.8	25.8	25.8	77	19.6	0	0	---	0.00	30.352 
21:40	26.1	26.1	26.1	77	19.9	0	0	---	0.00	30.352 
21:45	26.3	26.3	26.3	77	20.1	0	1	270	0.00	30.357 
21:50	26.4	26.4	26.4	77	20.2	0	0	---	0.00	30.357 
21:55	26.4	26.4	26.4	77	20.2	0	0	---	0.00	30.357 
22:00	26.4	26.4	26.4	77	20.2	0	1	270	0.00	30.360 
22:05	26.6	26.6	26.6	76	20.1	0	0	---	0.00	30.360 
22:10	26.6	26.6	26.6	76	20.1	0	1	270	0.00	30.360 
22:15	26.6	26.6	26.6	76	20.1	0	0	---	0.00	30.359 
22:20	26.4	26.4	26.4	76	19.9	0	0	---	0.00	30.359 
22:25	26.3	26.3	26.3	76	19.8	0	0	---	0.00	30.359 
22:30	26.0	26.0	26.0	76	19.5	0	0	---	0.00	30.363 
22:35	25.7	25.7	25.7	76	19.2	0	0	---	0.00	30.363 
22:40	25.4	25.4	25.4	76	18.9	0	0	---	0.00	30.363 
22:45	25.1	25.1	25.1	76	18.6	0	0	---	0.00	30.363 
22:50	25.0	25.0	25.0	77	18.8	0	0	---	0.00	30.363 
22:55	24.7	24.7	24.7	77	18.5	0	0	---	0.00	30.363 
23:00	24.5	24.5	24.5	77	18.3	0	0	---	0.00	30.369 
23:05	24.2	24.2	24.2	78	18.3	0	0	---	0.00	30.369 
23:10	23.9	23.9	23.9	78	18.1	0	0	---	0.00	30.369 
23:15	23.6	23.6	23.6	79	18.1	0	0	---	0.00	30.366 
23:20	23.5	23.5	23.5	79	18.0	0	0	---	0.00	30.366 
23:25	23.2	23.2	23.2	79	17.7	0	0	---	0.00	30.366 
23:30	22.7	22.7	22.7	79	17.2	0	0	---	0.00	30.364 
23:35	22.4	22.4	22.4	80	17.2	0	0	---	0.00	30.364 
23:40	22.1	22.1	22.1	80	16.9	0	0	---	0.00	30.364 
23:45	21.8	21.8	21.8	80	16.6	0	0	---	0.00	30.365 
23:50	21.4	21.4	21.4	81	16.5	0	0	---	0.00	30.365 
23:55	21.3	21.3	21.3	81	16.4	0	0	---	0.00	30.365 

CoCoRaHS
IN-AL-39
A2 Web Hosting
Creative Commons License
GoDaddy
search engine by freefind advanced

loaded 2018-11-14 03:37:39 • last modified 2010-11-18 10:43:29
Privacy PolicyDisclaimer
• wx.awcolley.com is powered by PmWiki v.2002016 •
• all content (unless otherwise noted) © 2018 A W Colley